createdAt,value
2022-10-16T00:00:37.446Z,12.60
2022-10-16T00:03:29.549Z,12.60
2022-10-16T00:06:18.268Z,12.60
2022-10-16T00:09:04.680Z,12.60
2022-10-16T00:11:51.520Z,12.60
2022-10-16T00:14:42.772Z,12.70
2022-10-16T00:17:28.840Z,12.80
2022-10-16T00:20:14.628Z,12.80
2022-10-16T00:23:19.934Z,12.90
2022-10-16T00:26:10.149Z,13.00
2022-10-16T00:28:56.129Z,13.00
2022-10-16T00:31:41.952Z,13.10
2022-10-16T00:34:28.049Z,13.10
2022-10-16T00:37:14.882Z,13.10
2022-10-16T00:40:00.875Z,13.00
2022-10-16T00:42:47.001Z,13.00
2022-10-16T00:45:32.804Z,12.90
2022-10-16T00:48:18.795Z,12.90
2022-10-16T00:51:06.791Z,12.80
2022-10-16T00:53:53.448Z,12.80
2022-10-16T00:56:39.891Z,12.80
2022-10-16T00:59:31.886Z,12.80
2022-10-16T01:02:18.813Z,12.70
2022-10-16T01:05:06.348Z,12.60
2022-10-16T01:08:04.048Z,12.60
2022-10-16T01:11:12.243Z,12.50
2022-10-16T01:14:03.623Z,12.40
2022-10-16T01:17:05.480Z,12.40
2022-10-16T01:20:02.746Z,12.30
2022-10-16T01:23:05.451Z,12.30
2022-10-16T01:26:23.684Z,12.20
2022-10-16T01:29:27.749Z,12.20
2022-10-16T01:32:35.851Z,12.20
2022-10-16T01:35:33.845Z,12.20
2022-10-16T01:38:37.579Z,12.20
2022-10-16T01:41:34.520Z,12.20
2022-10-16T01:44:26.079Z,12.20
2022-10-16T01:47:14.933Z,12.20
2022-10-16T01:50:05.870Z,12.20
2022-10-16T01:52:55.390Z,12.20
2022-10-16T01:55:48.049Z,12.20
2022-10-16T01:58:39.005Z,12.30
2022-10-16T02:01:28.277Z,12.30
2022-10-16T02:04:26.343Z,12.40
2022-10-16T02:07:17.606Z,12.50
2022-10-16T02:10:04.094Z,12.60
2022-10-16T02:13:06.418Z,12.60
2022-10-16T02:15:52.442Z,12.80
2022-10-16T02:18:43.344Z,12.80
2022-10-16T02:21:51.886Z,12.90
2022-10-16T02:24:50.028Z,12.90
2022-10-16T02:27:51.194Z,12.90
2022-10-16T02:30:46.291Z,13.00
2022-10-16T02:33:34.692Z,13.00
2022-10-16T02:36:22.325Z,13.00
2022-10-16T02:39:10.626Z,12.90
2022-10-16T02:41:56.424Z,12.80
2022-10-16T02:44:42.613Z,12.80
2022-10-16T02:47:32.460Z,12.70
2022-10-16T02:50:18.956Z,12.70
2022-10-16T02:53:05.025Z,12.60
2022-10-16T02:55:51.042Z,12.60
2022-10-16T02:58:36.911Z,12.50
2022-10-16T03:01:23.215Z,12.50
2022-10-16T03:04:11.710Z,12.40
2022-10-16T03:06:57.904Z,12.40
2022-10-16T03:09:44.131Z,12.40
2022-10-16T03:12:30.374Z,12.40
2022-10-16T03:15:17.564Z,12.30
2022-10-16T03:18:03.394Z,12.30
2022-10-16T03:20:49.397Z,12.30
2022-10-16T03:23:35.218Z,12.20
2022-10-16T03:26:21.067Z,12.20
2022-10-16T03:29:07.734Z,12.20
2022-10-16T03:31:54.007Z,12.20
2022-10-16T03:34:40.349Z,12.20
2022-10-16T03:37:27.176Z,12.10
2022-10-16T03:40:13.835Z,12.10
2022-10-16T03:43:03.010Z,12.10
2022-10-16T03:45:50.832Z,12.10
2022-10-16T03:48:36.887Z,12.10
2022-10-16T03:51:22.902Z,12.10
2022-10-16T03:54:10.189Z,12.00
2022-10-16T03:56:55.924Z,12.00
2022-10-16T03:59:44.846Z,12.10
2022-10-16T04:02:31.089Z,12.00
2022-10-16T04:05:17.121Z,12.00
2022-10-16T04:08:03.948Z,12.00
2022-10-16T04:10:50.010Z,12.00
2022-10-16T04:13:35.872Z,11.90
2022-10-16T04:16:22.052Z,11.90
2022-10-16T04:19:08.255Z,11.90
2022-10-16T04:21:53.942Z,11.80
2022-10-16T04:24:40.049Z,11.80
2022-10-16T04:27:26.821Z,11.80
2022-10-16T04:30:13.667Z,11.80
2022-10-16T04:35:47.391Z,11.70
2022-10-16T04:38:33.728Z,11.70
2022-10-16T04:41:20.427Z,11.70
2022-10-16T04:44:06.749Z,11.70
2022-10-16T04:46:52.711Z,11.60
2022-10-16T04:49:39.080Z,11.60
2022-10-16T04:52:25.957Z,11.60
2022-10-16T04:55:12.115Z,11.60
2022-10-16T04:57:58.602Z,11.50
2022-10-16T05:00:47.048Z,11.50
2022-10-16T05:03:33.417Z,11.50
2022-10-16T05:06:22.184Z,11.50
2022-10-16T05:09:08.893Z,11.50
2022-10-16T05:11:55.333Z,11.50
2022-10-16T05:14:41.416Z,11.50
2022-10-16T05:17:28.108Z,11.50
2022-10-16T05:20:14.607Z,11.50
2022-10-16T05:23:00.731Z,11.50
2022-10-16T05:25:55.478Z,11.50
2022-10-16T05:28:41.834Z,11.50
2022-10-16T05:31:28.120Z,11.50
2022-10-16T05:34:14.930Z,11.50
2022-10-16T05:37:01.388Z,11.50
2022-10-16T05:39:47.953Z,11.50
2022-10-16T05:42:34.679Z,11.50
2022-10-16T05:45:21.637Z,11.50
2022-10-16T05:48:07.655Z,11.50
2022-10-16T05:51:07.202Z,11.50
2022-10-16T05:53:53.712Z,11.50
2022-10-16T05:56:39.717Z,11.50
2022-10-16T05:59:25.684Z,11.50
2022-10-16T06:02:14.990Z,11.50
2022-10-16T06:05:01.148Z,11.50
2022-10-16T06:07:47.085Z,11.40
2022-10-16T06:10:32.879Z,11.40
2022-10-16T06:13:19.362Z,11.40
2022-10-16T06:16:05.811Z,11.40
2022-10-16T06:18:53.080Z,11.30
2022-10-16T06:21:39.580Z,11.30
2022-10-16T06:24:26.335Z,11.30
2022-10-16T06:27:12.359Z,11.30
2022-10-16T06:29:58.585Z,11.30
2022-10-16T06:32:45.391Z,11.30
2022-10-16T06:35:33.302Z,11.20
2022-10-16T06:38:19.332Z,11.20
2022-10-16T06:41:07.105Z,11.20
2022-10-16T06:43:56.277Z,11.20
2022-10-16T06:46:42.296Z,11.10
2022-10-16T06:49:29.636Z,11.10
2022-10-16T06:52:15.551Z,11.10
2022-10-16T06:55:01.824Z,11.20
2022-10-16T06:57:49.667Z,11.20
2022-10-16T07:00:35.647Z,11.20
2022-10-16T07:03:21.495Z,11.20
2022-10-16T07:06:09.919Z,11.20
2022-10-16T07:08:56.008Z,11.20
2022-10-16T07:11:41.868Z,11.20
2022-10-16T07:14:28.034Z,11.30
2022-10-16T07:17:14.188Z,11.30
2022-10-16T07:20:00.419Z,11.30
2022-10-16T07:22:47.032Z,11.30
2022-10-16T07:25:33.080Z,11.30
2022-10-16T07:28:19.195Z,11.30
2022-10-16T07:31:08.834Z,11.40
2022-10-16T07:33:55.680Z,11.40
2022-10-16T07:39:28.619Z,11.50
2022-10-16T07:42:14.969Z,11.50
2022-10-16T07:45:01.317Z,11.60
2022-10-16T07:47:47.039Z,11.60
2022-10-16T07:50:33.312Z,11.70
2022-10-16T07:53:22.437Z,11.70
2022-10-16T07:56:12.513Z,11.70
2022-10-16T07:59:01.316Z,11.70
2022-10-16T08:01:47.306Z,11.90
2022-10-16T08:04:33.127Z,11.90
2022-10-16T08:07:19.516Z,11.90
2022-10-16T08:10:05.847Z,12.00
2022-10-16T08:12:52.701Z,12.10
2022-10-16T08:15:38.819Z,12.30
2022-10-16T08:18:25.079Z,12.50
2022-10-16T08:21:20.312Z,12.60
2022-10-16T08:24:07.166Z,12.80
2022-10-16T08:26:58.419Z,13.00
2022-10-16T08:29:44.642Z,13.20
2022-10-16T08:32:30.816Z,13.30
2022-10-16T08:35:17.942Z,13.50
2022-10-16T08:38:05.676Z,13.70
2022-10-16T08:40:53.718Z,13.80
2022-10-16T08:43:51.947Z,13.80
2022-10-16T08:47:15.433Z,13.90
2022-10-16T08:50:12.504Z,13.90
2022-10-16T08:52:59.146Z,13.80
2022-10-16T08:55:52.197Z,13.80
2022-10-16T08:58:38.821Z,13.80
2022-10-16T09:01:36.208Z,13.70
2022-10-16T09:04:41.387Z,13.80
2022-10-16T09:07:39.999Z,13.80
2022-10-16T09:10:39.211Z,13.70
2022-10-16T09:14:08.595Z,13.70
2022-10-16T09:17:04.466Z,13.80
2022-10-16T09:20:13.907Z,13.80
2022-10-16T09:23:05.761Z,13.80
2022-10-16T09:25:52.742Z,13.80
2022-10-16T09:28:39.308Z,13.80
2022-10-16T09:31:25.798Z,13.80
2022-10-16T09:34:31.305Z,13.80
2022-10-16T09:37:23.654Z,13.80
2022-10-16T09:40:24.412Z,13.80
2022-10-16T09:43:28.744Z,13.80
2022-10-16T09:46:23.460Z,13.90
2022-10-16T09:49:29.134Z,13.90
2022-10-16T09:52:16.586Z,13.90
2022-10-16T09:55:14.366Z,14.00
2022-10-16T09:58:00.705Z,14.00
2022-10-16T10:00:55.051Z,14.10
2022-10-16T10:03:43.160Z,14.10
2022-10-16T10:06:38.796Z,14.20
2022-10-16T10:09:30.422Z,14.30
2022-10-16T10:12:29.026Z,14.30
2022-10-16T10:15:22.463Z,14.40
2022-10-16T10:18:23.916Z,14.60
2022-10-16T10:21:18.087Z,14.70
2022-10-16T10:24:05.976Z,14.90
2022-10-16T10:27:19.166Z,15.00
2022-10-16T10:30:20.571Z,15.20
2022-10-16T10:33:27.972Z,15.30
2022-10-16T10:36:37.858Z,15.50
2022-10-16T10:39:35.958Z,15.70
2022-10-16T10:42:57.533Z,15.90
2022-10-16T10:45:48.861Z,16.00
2022-10-16T10:48:48.459Z,16.20
2022-10-16T10:52:04.870Z,16.30
2022-10-16T10:55:03.015Z,16.40
2022-10-16T10:58:01.292Z,16.50
2022-10-16T11:00:56.211Z,16.50
2022-10-16T11:04:10.309Z,16.70
2022-10-16T11:07:06.234Z,16.70
2022-10-16T11:10:03.068Z,16.80
2022-10-16T11:12:58.103Z,16.90
2022-10-16T11:15:46.169Z,16.90
2022-10-16T11:18:50.970Z,17.00
2022-10-16T11:21:54.856Z,17.00
2022-10-16T11:24:46.934Z,17.10
2022-10-16T11:27:41.417Z,17.10
2022-10-16T11:30:34.761Z,17.10
2022-10-16T11:33:38.917Z,17.20
2022-10-16T11:36:34.767Z,17.30
2022-10-16T11:39:25.076Z,17.30
2022-10-16T11:42:25.327Z,17.30
2022-10-16T11:45:47.665Z,17.30
2022-10-16T11:48:41.868Z,17.40
2022-10-16T11:51:49.643Z,17.50
2022-10-16T11:54:47.751Z,17.60
2022-10-16T11:57:58.575Z,17.60
2022-10-16T12:00:53.004Z,17.60
2022-10-16T12:04:28.620Z,17.70
2022-10-16T12:07:20.492Z,17.90
2022-10-16T12:10:29.679Z,17.90
2022-10-16T12:13:34.604Z,18.00
2022-10-16T12:16:23.395Z,18.00
2022-10-16T12:19:16.107Z,17.90
2022-10-16T12:22:04.513Z,17.90
2022-10-16T12:24:53.615Z,17.80
2022-10-16T12:27:39.716Z,17.80
2022-10-16T12:30:35.824Z,17.80
2022-10-16T12:33:30.227Z,17.70
2022-10-16T12:36:34.273Z,17.70
2022-10-16T12:39:22.169Z,17.60
2022-10-16T12:42:26.927Z,17.50
2022-10-16T12:45:32.371Z,17.40
2022-10-16T12:48:26.495Z,17.40
2022-10-16T12:51:38.332Z,17.40
2022-10-16T12:54:24.324Z,17.40
2022-10-16T12:57:41.550Z,17.30
2022-10-16T13:00:51.997Z,17.40
2022-10-16T13:03:40.667Z,17.40
2022-10-16T13:06:59.254Z,17.40
2022-10-16T13:10:11.474Z,17.50
2022-10-16T13:13:15.937Z,17.60
2022-10-16T13:16:17.065Z,17.60
2022-10-16T13:19:15.876Z,17.60
2022-10-16T13:22:22.376Z,17.60
2022-10-16T13:25:31.931Z,17.60
2022-10-16T13:28:20.784Z,17.60
2022-10-16T13:31:19.942Z,17.60
2022-10-16T13:34:16.683Z,17.60
2022-10-16T13:37:02.900Z,17.60
2022-10-16T13:39:53.590Z,17.60
2022-10-16T13:42:41.426Z,17.60
2022-10-16T13:45:27.719Z,17.60
2022-10-16T13:48:14.302Z,17.60
2022-10-16T13:51:13.199Z,17.60
2022-10-16T13:53:59.857Z,17.70
2022-10-16T13:56:54.508Z,17.80
2022-10-16T13:59:48.786Z,17.80
2022-10-16T14:02:43.012Z,17.90
2022-10-16T14:05:29.367Z,17.90
2022-10-16T14:08:24.045Z,17.90
2022-10-16T14:11:13.628Z,17.90
2022-10-16T14:14:00.640Z,17.90
2022-10-16T14:16:49.064Z,17.90
2022-10-16T14:19:35.738Z,17.90
2022-10-16T14:22:41.278Z,17.80
2022-10-16T14:25:31.172Z,17.80
2022-10-16T14:28:21.550Z,17.80
2022-10-16T14:31:38.640Z,17.80
2022-10-16T14:34:28.495Z,17.80
2022-10-16T14:37:33.490Z,17.80
2022-10-16T14:40:22.092Z,17.80
2022-10-16T14:43:16.531Z,17.80
2022-10-16T14:46:06.444Z,17.70
2022-10-16T14:49:00.197Z,17.70
2022-10-16T14:51:47.430Z,17.70
2022-10-16T14:54:34.979Z,17.60
2022-10-16T14:57:24.693Z,17.60
2022-10-16T15:00:20.622Z,17.50
2022-10-16T15:03:06.561Z,17.50
2022-10-16T15:05:52.531Z,17.50
2022-10-16T15:08:39.652Z,17.40
2022-10-16T15:11:26.180Z,17.40
2022-10-16T15:17:06.206Z,17.30
2022-10-16T15:19:52.689Z,17.20
2022-10-16T15:22:39.525Z,17.10
2022-10-16T15:25:50.116Z,17.00
2022-10-16T15:28:37.164Z,16.90
2022-10-16T15:31:25.490Z,16.80
2022-10-16T15:34:11.835Z,16.80
2022-10-16T15:36:58.833Z,16.70
2022-10-16T15:39:45.179Z,16.60
2022-10-16T15:42:31.457Z,16.50
2022-10-16T15:45:21.543Z,16.50
2022-10-16T15:48:11.633Z,16.50
2022-10-16T15:50:58.134Z,16.40
2022-10-16T15:53:47.418Z,16.40
2022-10-16T15:56:34.530Z,16.30
2022-10-16T15:59:20.362Z,16.30
2022-10-16T16:02:06.545Z,16.30
2022-10-16T16:04:53.051Z,16.20
2022-10-16T16:07:40.036Z,16.20
2022-10-16T16:10:26.046Z,16.10
2022-10-16T16:13:12.127Z,16.10
2022-10-16T16:15:58.186Z,16.10
2022-10-16T16:18:45.119Z,16.00
2022-10-16T16:21:31.068Z,16.00
2022-10-16T16:24:17.198Z,16.00
2022-10-16T16:29:56.131Z,15.90
2022-10-16T16:32:43.592Z,15.90
2022-10-16T16:35:29.766Z,15.80
2022-10-16T16:38:15.910Z,15.80
2022-10-16T16:41:15.957Z,15.70
2022-10-16T16:44:04.780Z,15.70
2022-10-16T16:46:53.928Z,15.70
2022-10-16T16:49:41.413Z,15.60
2022-10-16T16:52:30.367Z,15.60
2022-10-16T16:55:16.740Z,15.50
2022-10-16T16:58:04.469Z,15.50
2022-10-16T17:00:56.633Z,15.50
2022-10-16T17:03:48.339Z,15.40
2022-10-16T17:06:34.459Z,15.30
2022-10-16T17:09:20.634Z,15.30
2022-10-16T17:12:06.536Z,15.30
2022-10-16T17:14:52.741Z,15.30
2022-10-16T17:17:39.172Z,15.30
2022-10-16T17:20:25.248Z,15.20
2022-10-16T17:23:12.693Z,15.20
2022-10-16T17:26:13.632Z,15.20
2022-10-16T17:29:02.274Z,15.20
2022-10-16T17:31:49.990Z,15.20
2022-10-16T17:34:36.533Z,15.20
2022-10-16T17:37:22.708Z,15.20
2022-10-16T17:40:10.501Z,15.10
2022-10-16T17:42:56.582Z,15.10
2022-10-16T17:45:42.492Z,15.10
2022-10-16T17:48:28.371Z,15.10
2022-10-16T17:51:17.999Z,15.10
2022-10-16T17:54:04.596Z,15.10
2022-10-16T17:56:50.945Z,15.10
2022-10-16T17:59:37.208Z,15.10
2022-10-16T18:02:23.240Z,15.10
2022-10-16T18:05:09.746Z,15.00
2022-10-16T18:07:55.771Z,15.00
2022-10-16T18:10:49.866Z,15.10
2022-10-16T18:13:36.503Z,15.00
2022-10-16T18:16:23.228Z,15.00
2022-10-16T18:19:13.024Z,15.00
2022-10-16T18:22:03.051Z,15.00
2022-10-16T18:24:49.326Z,14.90
2022-10-16T18:27:36.153Z,14.90
2022-10-16T18:30:23.276Z,14.80
2022-10-16T18:33:09.176Z,14.80
2022-10-16T18:35:55.277Z,14.80
2022-10-16T18:38:41.544Z,14.80
2022-10-16T18:41:27.666Z,14.70
2022-10-16T18:44:14.293Z,14.70
2022-10-16T18:47:00.388Z,14.70
2022-10-16T18:49:49.373Z,14.70
2022-10-16T18:52:35.613Z,14.80
2022-10-16T18:55:22.674Z,14.70
2022-10-16T18:58:08.933Z,14.80
2022-10-16T19:00:55.211Z,14.80
2022-10-16T19:03:42.080Z,14.80
2022-10-16T19:06:29.276Z,14.80
2022-10-16T19:09:16.934Z,14.80
2022-10-16T19:12:03.656Z,14.80
2022-10-16T19:14:49.652Z,14.80
2022-10-16T19:17:37.811Z,14.80
2022-10-16T19:20:23.904Z,14.80
2022-10-16T19:23:09.720Z,14.80
2022-10-16T19:25:55.624Z,14.80
2022-10-16T19:28:42.413Z,14.80
2022-10-16T19:31:30.197Z,14.80
2022-10-16T19:34:16.099Z,14.80
2022-10-16T19:37:02.144Z,14.80
2022-10-16T19:39:49.448Z,14.80
2022-10-16T19:42:36.236Z,14.80
2022-10-16T19:45:27.592Z,14.70
2022-10-16T19:48:13.622Z,14.80
2022-10-16T19:50:59.657Z,14.70
2022-10-16T19:53:46.901Z,14.80
2022-10-16T19:56:34.227Z,14.80
2022-10-16T19:59:21.150Z,14.80
2022-10-16T20:02:09.551Z,14.80
2022-10-16T20:04:56.513Z,14.80
2022-10-16T20:07:42.957Z,14.80
2022-10-16T20:10:28.962Z,14.90
2022-10-16T20:13:14.976Z,14.90
2022-10-16T20:18:54.931Z,14.90
2022-10-16T20:21:43.739Z,14.90
2022-10-16T20:24:29.889Z,14.90
2022-10-16T20:27:16.008Z,14.90
2022-10-16T20:30:02.405Z,14.90
2022-10-16T20:32:48.522Z,15.00
2022-10-16T20:35:39.724Z,14.90
2022-10-16T20:38:26.342Z,15.00
2022-10-16T20:41:12.904Z,15.00
2022-10-16T20:44:01.967Z,15.00
2022-10-16T20:46:47.813Z,15.10
2022-10-16T20:49:40.831Z,15.10
2022-10-16T20:52:28.017Z,15.10
2022-10-16T20:55:16.088Z,15.10
2022-10-16T20:58:02.594Z,15.10
2022-10-16T21:00:48.453Z,15.10
2022-10-16T21:03:34.810Z,15.20
2022-10-16T21:06:21.782Z,15.10
2022-10-16T21:09:08.442Z,15.20
2022-10-16T21:11:54.532Z,15.20
2022-10-16T21:14:51.099Z,15.20
2022-10-16T21:17:46.328Z,15.30
2022-10-16T21:20:32.336Z,15.30
2022-10-16T21:23:18.288Z,15.30
2022-10-16T21:26:04.842Z,15.30
2022-10-16T21:28:55.827Z,15.40
2022-10-16T21:31:43.072Z,15.40
2022-10-16T21:34:29.083Z,15.40
2022-10-16T21:37:15.042Z,15.40
2022-10-16T21:40:01.083Z,15.40
2022-10-16T21:42:46.898Z,15.50
2022-10-16T21:45:34.253Z,15.50
2022-10-16T21:48:21.091Z,15.50
2022-10-16T21:51:07.162Z,15.50
2022-10-16T21:53:53.677Z,15.50
2022-10-16T21:56:43.048Z,15.50
2022-10-16T21:59:29.528Z,15.60
2022-10-16T22:02:15.606Z,15.50
2022-10-16T22:05:01.640Z,15.60
2022-10-16T22:07:47.754Z,15.60
2022-10-16T22:10:33.603Z,15.60
2022-10-16T22:13:22.546Z,15.60
2022-10-16T22:16:10.018Z,15.60
2022-10-16T22:18:57.135Z,15.60
2022-10-16T22:21:46.255Z,15.70
2022-10-16T22:27:29.669Z,15.70
2022-10-16T22:30:16.568Z,15.80
2022-10-16T22:33:02.777Z,15.80
2022-10-16T22:35:48.912Z,15.90
2022-10-16T22:38:36.517Z,15.90
2022-10-16T22:41:24.960Z,15.90
2022-10-16T22:44:12.763Z,16.00
2022-10-16T22:46:59.144Z,16.00
2022-10-16T22:49:45.501Z,16.00
2022-10-16T22:52:34.981Z,16.00
2022-10-16T22:55:21.360Z,16.10
2022-10-16T22:58:07.240Z,16.10
2022-10-16T23:00:53.580Z,16.10
2022-10-16T23:03:40.391Z,16.10
2022-10-16T23:06:27.803Z,16.10
2022-10-16T23:09:13.697Z,16.10
2022-10-16T23:11:59.678Z,16.20
2022-10-16T23:14:45.467Z,16.20
2022-10-16T23:17:32.097Z,16.30
2022-10-16T23:20:18.576Z,16.30
2022-10-16T23:23:04.848Z,16.30
2022-10-16T23:25:53.407Z,16.40
2022-10-16T23:28:43.041Z,16.50
2022-10-16T23:31:29.694Z,16.50
2022-10-16T23:34:15.498Z,16.50
2022-10-16T23:37:03.632Z,16.60
2022-10-16T23:39:51.043Z,16.60
2022-10-16T23:42:37.680Z,16.60
2022-10-16T23:45:23.856Z,16.70
2022-10-16T23:48:09.984Z,16.70
2022-10-16T23:50:55.923Z,16.80
2022-10-16T23:53:41.956Z,16.80
2022-10-16T23:56:28.077Z,16.80
2022-10-16T23:59:13.903Z,16.80
